createdAt,value
2022-10-24T00:01:08.460Z,11.20
2022-10-24T00:03:35.031Z,10.13
2022-10-24T00:06:01.596Z,6.82
2022-10-24T00:08:28.205Z,6.25
2022-10-24T00:10:54.800Z,4.35
2022-10-24T00:13:21.558Z,4.72
2022-10-24T00:15:49.821Z,4.93
2022-10-24T00:18:16.768Z,4.03
2022-10-24T00:23:15.184Z,4.10
2022-10-24T00:25:41.972Z,3.58
2022-10-24T00:28:08.599Z,3.80
2022-10-24T00:30:35.281Z,3.85
2022-10-24T00:33:02.030Z,3.72
2022-10-24T00:35:28.826Z,3.85
2022-10-24T00:37:55.415Z,3.28
2022-10-24T00:40:22.208Z,3.40
2022-10-24T00:42:49.576Z,4.00
2022-10-24T00:45:39.532Z,3.78
2022-10-24T00:48:17.605Z,3.75
2022-10-24T00:50:46.469Z,4.50
2022-10-24T00:53:14.403Z,4.35
2022-10-24T00:55:42.324Z,4.13
2022-10-24T00:58:09.529Z,3.92
2022-10-24T01:00:36.404Z,4.63
2022-10-24T01:03:03.645Z,4.68
2022-10-24T01:05:40.691Z,5.28
2022-10-24T01:08:24.861Z,4.53
2022-10-24T01:11:05.655Z,5.32
2022-10-24T01:13:55.186Z,5.68
2022-10-24T01:16:42.373Z,5.60
2022-10-24T01:19:36.406Z,5.55
2022-10-24T01:22:08.558Z,6.03
2022-10-24T01:25:07.630Z,5.85
2022-10-24T01:27:48.023Z,5.95
2022-10-24T01:30:16.862Z,5.95
2022-10-24T01:33:02.051Z,5.85
2022-10-24T01:35:40.292Z,5.68
2022-10-24T01:38:16.500Z,5.97
2022-10-24T01:40:51.956Z,6.20
2022-10-24T01:43:24.685Z,6.40
2022-10-24T01:46:14.495Z,6.18
2022-10-24T01:48:45.709Z,5.72
2022-10-24T01:51:15.289Z,6.50
2022-10-24T01:53:43.878Z,6.88
2022-10-24T01:56:10.830Z,7.03
2022-10-24T01:58:37.401Z,6.45
2022-10-24T02:01:10.004Z,6.70
2022-10-24T02:03:44.240Z,6.45
2022-10-24T02:06:19.158Z,6.63
2022-10-24T02:08:50.469Z,6.28
2022-10-24T02:11:17.202Z,5.97
2022-10-24T02:13:58.116Z,6.13
2022-10-24T02:16:24.739Z,6.05
2022-10-24T02:18:55.032Z,5.57
2022-10-24T02:21:29.151Z,6.35
2022-10-24T02:24:09.602Z,6.32
2022-10-24T02:26:52.202Z,5.95
2022-10-24T02:29:44.944Z,6.07
2022-10-24T02:32:18.653Z,6.10
2022-10-24T02:34:46.710Z,5.93
2022-10-24T02:37:16.029Z,7.07
2022-10-24T02:39:46.129Z,5.88
2022-10-24T02:42:14.367Z,5.90
2022-10-24T02:44:43.754Z,6.03
2022-10-24T02:47:12.889Z,5.88
2022-10-24T02:49:41.734Z,6.20
2022-10-24T02:52:08.509Z,6.25
2022-10-24T02:54:35.069Z,6.28
2022-10-24T02:57:03.616Z,6.50
2022-10-24T02:59:30.646Z,6.60
2022-10-24T03:01:57.576Z,6.47
2022-10-24T03:04:24.247Z,6.72
2022-10-24T03:06:50.936Z,7.32
2022-10-24T03:09:17.604Z,6.88
2022-10-24T03:11:44.265Z,7.03
2022-10-24T03:14:10.921Z,6.60
2022-10-24T03:16:37.494Z,7.25
2022-10-24T03:19:04.222Z,7.20
2022-10-24T03:21:30.809Z,7.72
2022-10-24T03:23:57.656Z,7.68
2022-10-24T03:26:24.499Z,8.13
2022-10-24T03:28:51.145Z,6.80
2022-10-24T03:31:17.755Z,7.30
2022-10-24T03:33:44.465Z,7.22
2022-10-24T03:36:11.263Z,6.10
2022-10-24T03:38:37.862Z,7.10
2022-10-24T03:41:05.152Z,7.03
2022-10-24T03:43:31.782Z,7.72
2022-10-24T03:45:59.493Z,7.57
2022-10-24T03:48:26.556Z,7.03
2022-10-24T03:50:53.151Z,6.18
2022-10-24T03:53:19.773Z,7.18
2022-10-24T03:55:46.361Z,6.40
2022-10-24T03:58:12.912Z,6.18
2022-10-24T04:00:40.590Z,6.03
2022-10-24T04:03:07.858Z,6.18
2022-10-24T04:05:34.714Z,7.18
2022-10-24T04:08:01.726Z,7.10
2022-10-24T04:10:28.806Z,7.05
2022-10-24T04:12:55.478Z,7.30
2022-10-24T04:15:22.183Z,7.22
2022-10-24T04:17:48.759Z,7.47
2022-10-24T04:20:19.547Z,7.00
2022-10-24T04:22:47.663Z,7.50
2022-10-24T04:25:15.777Z,7.82
2022-10-24T04:27:42.448Z,8.35
2022-10-24T04:30:16.379Z,8.25
2022-10-24T04:32:44.119Z,7.47
2022-10-24T04:35:11.114Z,8.30
2022-10-24T04:37:37.770Z,7.57
2022-10-24T04:40:05.030Z,8.02
2022-10-24T04:42:31.819Z,7.88
2022-10-24T04:44:58.426Z,8.20
2022-10-24T04:47:25.018Z,8.00
2022-10-24T04:49:51.604Z,7.68
2022-10-24T04:52:18.272Z,6.80
2022-10-24T04:54:44.912Z,7.18
2022-10-24T04:57:11.578Z,7.47
2022-10-24T04:59:38.209Z,7.93
2022-10-24T05:02:04.938Z,7.70
2022-10-24T05:04:31.696Z,8.00
2022-10-24T05:06:58.298Z,7.78
2022-10-24T05:09:24.989Z,7.03
2022-10-24T05:11:53.647Z,7.85
2022-10-24T05:14:20.222Z,7.60
2022-10-24T05:16:48.401Z,7.85
2022-10-24T05:19:16.395Z,8.20
2022-10-24T05:21:43.252Z,7.30
2022-10-24T05:24:10.030Z,7.85
2022-10-24T05:26:36.667Z,7.45
2022-10-24T05:29:03.312Z,7.78
2022-10-24T05:33:56.641Z,8.02
2022-10-24T05:36:23.276Z,7.63
2022-10-24T05:38:49.909Z,7.35
2022-10-24T05:41:16.459Z,7.63
2022-10-24T05:43:43.017Z,6.50
2022-10-24T05:46:10.113Z,6.82
2022-10-24T05:48:37.570Z,7.68
2022-10-24T05:51:04.392Z,7.35
2022-10-24T05:53:31.824Z,7.55
2022-10-24T05:55:58.408Z,6.82
2022-10-24T05:58:25.043Z,6.97
2022-10-24T06:00:54.094Z,6.85
2022-10-24T06:03:21.502Z,7.20
2022-10-24T06:05:48.913Z,6.88
2022-10-24T06:08:15.709Z,6.93
2022-10-24T06:10:46.089Z,6.95
2022-10-24T06:13:12.666Z,5.65
2022-10-24T06:15:41.608Z,6.50
2022-10-24T06:18:08.238Z,6.13
2022-10-24T06:20:35.121Z,6.25
2022-10-24T06:23:01.721Z,6.70
2022-10-24T06:25:28.372Z,6.45
2022-10-24T06:27:55.020Z,6.00
2022-10-24T06:30:21.686Z,6.43
2022-10-24T06:32:48.414Z,6.53
2022-10-24T06:35:15.847Z,5.65
2022-10-24T06:37:47.171Z,5.18
2022-10-24T06:40:15.000Z,5.45
2022-10-24T06:42:41.598Z,5.88
2022-10-24T06:45:08.585Z,6.03
2022-10-24T06:47:35.234Z,5.60
2022-10-24T06:50:02.226Z,5.97
2022-10-24T06:52:28.882Z,5.95
2022-10-24T06:54:55.829Z,5.55
2022-10-24T06:57:22.779Z,5.20
2022-10-24T06:59:49.417Z,5.80
2022-10-24T07:02:17.582Z,5.63
2022-10-24T07:04:44.386Z,5.35
2022-10-24T07:07:16.348Z,4.45
2022-10-24T07:09:43.174Z,5.05
2022-10-24T07:12:10.067Z,5.28
2022-10-24T07:14:37.006Z,5.45
2022-10-24T07:17:04.397Z,5.53
2022-10-24T07:19:33.979Z,4.78
2022-10-24T07:22:04.004Z,4.95
2022-10-24T07:24:31.124Z,4.72
2022-10-24T07:26:57.753Z,4.72
2022-10-24T07:29:24.914Z,5.07
2022-10-24T07:31:51.566Z,5.03
2022-10-24T07:34:18.435Z,4.30
2022-10-24T07:36:45.440Z,4.90
2022-10-24T07:39:12.864Z,4.10
2022-10-24T07:41:41.649Z,5.07
2022-10-24T07:44:10.192Z,4.13
2022-10-24T07:46:36.988Z,4.93
2022-10-24T07:49:04.028Z,4.30
2022-10-24T07:51:31.745Z,4.03
2022-10-24T07:53:58.973Z,3.85
2022-10-24T07:56:26.022Z,4.28
2022-10-24T07:58:52.636Z,4.53
2022-10-24T08:01:22.068Z,4.25
2022-10-24T08:03:48.832Z,4.10
2022-10-24T08:06:21.587Z,4.40
2022-10-24T08:08:48.761Z,4.07
2022-10-24T08:11:21.858Z,4.60
2022-10-24T08:13:50.085Z,4.38
2022-10-24T08:16:18.704Z,4.57
2022-10-24T08:18:45.366Z,3.92
2022-10-24T08:21:14.635Z,4.15
2022-10-24T08:23:44.152Z,3.97
2022-10-24T08:26:14.381Z,3.83
2022-10-24T08:28:41.982Z,4.60
2022-10-24T08:31:11.831Z,3.63
2022-10-24T08:33:38.806Z,3.60
2022-10-24T08:36:13.582Z,3.50
2022-10-24T08:38:40.302Z,3.80
2022-10-24T08:41:10.343Z,3.85
2022-10-24T08:43:37.074Z,3.38
2022-10-24T08:46:30.534Z,4.35
2022-10-24T08:49:17.287Z,3.92
2022-10-24T08:51:54.873Z,3.00
2022-10-24T08:54:25.773Z,3.42
2022-10-24T08:56:55.696Z,3.33
2022-10-24T08:59:22.773Z,3.55
2022-10-24T09:02:04.944Z,3.35
2022-10-24T09:04:42.526Z,3.35
2022-10-24T09:07:18.985Z,3.50
2022-10-24T09:09:48.464Z,3.67
2022-10-24T09:12:17.603Z,3.33
2022-10-24T09:14:47.051Z,3.92
2022-10-24T09:17:21.327Z,3.25
2022-10-24T09:20:12.439Z,3.92
2022-10-24T09:22:43.460Z,3.17
2022-10-24T09:25:23.570Z,4.07
2022-10-24T09:27:50.911Z,3.80
2022-10-24T09:30:21.281Z,3.45
2022-10-24T09:32:48.215Z,3.88
2022-10-24T09:35:30.254Z,3.17
2022-10-24T09:38:17.585Z,3.38
2022-10-24T09:40:53.504Z,3.58
2022-10-24T09:43:31.530Z,4.20
2022-10-24T09:46:06.549Z,3.17
2022-10-24T09:48:42.021Z,3.17
2022-10-24T09:51:08.836Z,3.08
2022-10-24T09:54:00.462Z,3.50
2022-10-24T09:56:41.576Z,3.67
2022-10-24T09:59:19.169Z,3.25
2022-10-24T10:01:46.362Z,3.45
2022-10-24T10:04:18.428Z,3.55
2022-10-24T10:06:48.335Z,3.20
2022-10-24T10:09:24.264Z,3.22
2022-10-24T10:12:02.623Z,3.28
2022-10-24T10:14:30.058Z,3.83
2022-10-24T10:17:06.199Z,3.25
2022-10-24T10:19:37.290Z,2.97
2022-10-24T10:22:20.008Z,3.38
2022-10-24T10:24:47.235Z,3.33
2022-10-24T10:27:32.025Z,2.97
2022-10-24T10:30:16.796Z,3.13
2022-10-24T10:32:55.381Z,3.13
2022-10-24T10:35:40.893Z,4.45
2022-10-24T10:38:45.285Z,2.88
2022-10-24T10:41:43.386Z,3.20
2022-10-24T10:44:19.695Z,3.38
2022-10-24T10:47:01.321Z,3.20
2022-10-24T10:49:39.822Z,2.90
2022-10-24T10:52:26.808Z,4.10
2022-10-24T10:55:24.597Z,3.05
2022-10-24T10:57:54.182Z,2.80
2022-10-24T11:00:46.251Z,3.45
2022-10-24T11:03:54.313Z,2.67
2022-10-24T11:06:34.389Z,3.17
2022-10-24T11:09:27.549Z,2.55
2022-10-24T11:12:17.133Z,2.75
2022-10-24T11:14:50.106Z,3.10
2022-10-24T11:17:32.288Z,2.90
2022-10-24T11:20:17.742Z,3.17
2022-10-24T11:22:53.069Z,3.10
2022-10-24T11:25:30.378Z,3.05
2022-10-24T11:28:31.293Z,3.20
2022-10-24T11:31:24.792Z,3.00
2022-10-24T11:34:21.417Z,2.88
2022-10-24T11:37:27.785Z,3.17
2022-10-24T11:40:06.332Z,3.78
2022-10-24T11:43:18.428Z,3.22
2022-10-24T11:46:05.170Z,3.22
2022-10-24T11:48:43.186Z,3.40
2022-10-24T11:51:21.633Z,2.92
2022-10-24T11:54:11.511Z,2.78
2022-10-24T11:56:43.054Z,2.58
2022-10-24T11:59:21.481Z,3.13
2022-10-24T12:01:59.952Z,3.67
2022-10-24T12:04:57.838Z,3.25
2022-10-24T12:07:54.520Z,2.67
2022-10-24T12:10:43.530Z,2.65
2022-10-24T12:13:16.175Z,2.47
2022-10-24T12:16:00.434Z,2.60
2022-10-24T12:18:46.793Z,2.35
2022-10-24T12:21:21.055Z,2.22
2022-10-24T12:24:00.560Z,2.05
2022-10-24T12:26:33.329Z,2.92
2022-10-24T12:29:04.723Z,1.60
2022-10-24T12:31:37.407Z,1.90
2022-10-24T12:34:16.653Z,2.05
2022-10-24T12:37:04.750Z,1.73
2022-10-24T12:39:38.518Z,1.92
2022-10-24T12:42:05.621Z,2.20
2022-10-24T12:44:32.186Z,1.85
2022-10-24T12:46:59.907Z,2.25
2022-10-24T12:49:31.737Z,2.17
2022-10-24T12:51:59.673Z,2.30
2022-10-24T12:54:45.577Z,2.55
2022-10-24T12:57:12.303Z,2.92
2022-10-24T12:59:57.437Z,1.98
2022-10-24T13:02:49.619Z,2.20
2022-10-24T13:05:16.285Z,1.80
2022-10-24T13:08:07.308Z,2.00
2022-10-24T13:11:01.861Z,1.90
2022-10-24T13:14:09.809Z,1.95
2022-10-24T13:19:17.096Z,2.22
2022-10-24T13:21:52.915Z,2.15
2022-10-24T13:24:22.837Z,2.20
2022-10-24T13:27:12.867Z,3.03
2022-10-24T13:29:39.907Z,2.10
2022-10-24T13:32:06.541Z,1.80
2022-10-24T13:34:42.951Z,1.70
2022-10-24T13:37:09.619Z,2.38
2022-10-24T13:39:42.539Z,2.30
2022-10-24T13:42:35.020Z,2.15
2022-10-24T13:45:46.550Z,1.80
2022-10-24T13:48:26.969Z,1.95
2022-10-24T13:51:17.613Z,2.00
2022-10-24T13:53:55.752Z,1.60
2022-10-24T13:56:23.431Z,3.75
2022-10-24T13:58:50.269Z,2.20
2022-10-24T14:01:25.123Z,2.42
2022-10-24T14:03:53.218Z,2.50
2022-10-24T14:06:32.358Z,1.95
2022-10-24T14:09:09.289Z,2.50
2022-10-24T14:11:42.802Z,2.28
2022-10-24T14:14:28.266Z,1.80
2022-10-24T14:17:23.800Z,1.70
2022-10-24T14:19:55.493Z,1.98
2022-10-24T14:22:35.591Z,2.30
2022-10-24T14:25:02.378Z,2.90
2022-10-24T14:27:29.187Z,2.40
2022-10-24T14:29:59.227Z,2.58
2022-10-24T14:32:28.244Z,2.85
2022-10-24T14:34:57.577Z,4.18
2022-10-24T14:37:36.997Z,2.38
2022-10-24T14:40:04.805Z,1.63
2022-10-24T14:42:32.050Z,1.58
2022-10-24T14:44:59.912Z,2.00
2022-10-24T14:47:36.470Z,2.17
2022-10-24T14:50:03.294Z,2.08
2022-10-24T14:52:36.322Z,2.05
2022-10-24T14:55:17.776Z,2.25
2022-10-24T14:57:49.467Z,2.00
2022-10-24T15:00:28.797Z,2.25
2022-10-24T15:02:58.234Z,2.42
2022-10-24T15:05:29.913Z,2.33
2022-10-24T15:08:21.646Z,2.35
2022-10-24T15:10:49.427Z,2.88
2022-10-24T15:13:18.172Z,2.42
2022-10-24T15:15:44.696Z,2.50
2022-10-24T15:18:23.590Z,2.22
2022-10-24T15:20:53.377Z,1.90
2022-10-24T15:23:31.900Z,2.03
2022-10-24T15:26:02.585Z,2.30
2022-10-24T15:28:47.042Z,1.90
2022-10-24T15:31:16.244Z,2.75
2022-10-24T15:33:43.548Z,2.38
2022-10-24T15:36:28.533Z,2.90
2022-10-24T15:39:01.988Z,3.53
2022-10-24T15:41:28.887Z,5.68
2022-10-24T15:43:56.940Z,2.30
2022-10-24T15:46:24.397Z,3.30
2022-10-24T15:48:51.133Z,3.83
2022-10-24T15:51:20.901Z,5.85
2022-10-24T15:53:51.155Z,10.80
2022-10-24T15:56:17.902Z,8.05
2022-10-24T15:58:44.709Z,10.98
2022-10-24T16:01:24.756Z,8.55
2022-10-24T16:03:51.666Z,12.23
2022-10-24T16:06:18.374Z,12.30
2022-10-24T16:08:44.949Z,5.13
2022-10-24T16:11:12.288Z,5.10
2022-10-24T16:13:39.630Z,3.20
2022-10-24T16:16:06.916Z,2.42
2022-10-24T16:18:33.674Z,3.08
2022-10-24T16:21:00.563Z,2.17
2022-10-24T16:23:28.094Z,2.08
2022-10-24T16:25:54.760Z,3.10
2022-10-24T16:28:23.870Z,2.92
2022-10-24T16:30:50.900Z,2.22
2022-10-24T16:33:20.032Z,2.70
2022-10-24T16:35:50.078Z,2.45
2022-10-24T16:38:17.249Z,1.73
2022-10-24T16:40:46.089Z,1.95
2022-10-24T16:43:19.674Z,2.28
2022-10-24T16:45:57.461Z,2.28
2022-10-24T16:48:24.334Z,2.03
2022-10-24T16:50:51.163Z,1.90
2022-10-24T16:53:18.373Z,2.30
2022-10-24T16:55:53.426Z,1.80
2022-10-24T16:58:21.667Z,2.03
2022-10-24T17:00:48.552Z,1.70
2022-10-24T17:03:15.473Z,1.88
2022-10-24T17:08:17.667Z,2.63
2022-10-24T17:10:47.065Z,2.40
2022-10-24T17:13:13.730Z,2.75
2022-10-24T17:15:40.672Z,2.90
2022-10-24T17:18:08.909Z,4.22
2022-10-24T17:20:35.454Z,5.28
2022-10-24T17:23:04.399Z,3.45
2022-10-24T17:25:33.309Z,3.38
2022-10-24T17:28:00.030Z,3.95
2022-10-24T17:30:29.687Z,2.90
2022-10-24T17:32:56.900Z,2.78
2022-10-24T17:35:25.854Z,2.90
2022-10-24T17:38:13.840Z,3.10
2022-10-24T17:40:46.888Z,3.05
2022-10-24T17:43:26.216Z,3.08
2022-10-24T17:45:55.014Z,3.75
2022-10-24T17:48:22.804Z,4.05
2022-10-24T17:50:50.358Z,3.67
2022-10-24T17:53:19.577Z,3.17
2022-10-24T17:55:49.409Z,3.30
2022-10-24T17:58:16.671Z,3.00
2022-10-24T18:00:44.124Z,3.22
2022-10-24T18:03:11.329Z,2.70
2022-10-24T18:05:38.930Z,2.60
2022-10-24T18:08:08.315Z,2.70
2022-10-24T18:10:40.296Z,3.05
2022-10-24T18:13:08.180Z,2.88
2022-10-24T18:15:36.036Z,2.55
2022-10-24T18:18:04.600Z,2.50
2022-10-24T18:20:32.196Z,2.25
2022-10-24T18:22:59.409Z,2.03
2022-10-24T18:25:28.311Z,2.08
2022-10-24T18:27:59.166Z,2.70
2022-10-24T18:30:27.279Z,3.40
2022-10-24T18:32:53.873Z,3.78
2022-10-24T18:35:22.344Z,3.50
2022-10-24T18:37:50.027Z,3.40
2022-10-24T18:40:17.016Z,2.80
2022-10-24T18:43:04.045Z,8.07
2022-10-24T18:47:58.454Z,5.03
2022-10-24T18:50:25.710Z,2.20
2022-10-24T18:53:04.940Z,2.50
2022-10-24T18:55:33.861Z,1.98
2022-10-24T18:58:00.995Z,2.03
2022-10-24T19:00:30.600Z,1.92
2022-10-24T19:03:22.898Z,2.05
2022-10-24T19:05:55.280Z,2.17
2022-10-24T19:08:24.026Z,2.00
2022-10-24T19:10:52.818Z,1.98
2022-10-24T19:13:19.466Z,2.35
2022-10-24T19:16:03.660Z,1.90
2022-10-24T19:18:33.775Z,1.95
2022-10-24T19:21:01.246Z,2.50
2022-10-24T19:23:28.141Z,2.15
2022-10-24T19:25:55.034Z,2.40
2022-10-24T19:28:21.798Z,2.40
2022-10-24T19:30:48.577Z,2.00
2022-10-24T19:33:16.597Z,1.88
2022-10-24T19:35:47.259Z,1.85
2022-10-24T19:38:15.079Z,2.13
2022-10-24T19:40:51.399Z,2.13
2022-10-24T19:43:20.531Z,1.95
2022-10-24T19:45:50.884Z,1.50
2022-10-24T19:48:36.800Z,1.70
2022-10-24T19:51:04.245Z,1.25
2022-10-24T19:53:35.054Z,1.45
2022-10-24T19:56:18.143Z,1.75
2022-10-24T19:58:47.098Z,1.30
2022-10-24T20:01:16.142Z,1.70
2022-10-24T20:03:45.038Z,1.83
2022-10-24T20:06:12.209Z,1.65
2022-10-24T20:08:39.355Z,1.70
2022-10-24T20:11:07.383Z,1.70
2022-10-24T20:13:34.731Z,1.92
2022-10-24T20:16:05.011Z,2.20
2022-10-24T20:18:33.427Z,2.10
2022-10-24T20:21:03.939Z,1.80
2022-10-24T20:23:30.737Z,1.50
2022-10-24T20:26:03.307Z,1.90
2022-10-24T20:28:32.948Z,1.67
2022-10-24T20:30:59.591Z,1.77
2022-10-24T20:33:26.387Z,3.58
2022-10-24T20:35:52.972Z,1.85
2022-10-24T20:38:19.757Z,1.58
2022-10-24T20:40:46.349Z,1.98
2022-10-24T20:43:12.932Z,1.75
2022-10-24T20:45:40.346Z,1.60
2022-10-24T20:48:07.348Z,2.00
2022-10-24T20:50:34.910Z,1.63
2022-10-24T20:53:01.993Z,1.90
2022-10-24T20:55:32.321Z,1.70
2022-10-24T20:58:13.458Z,1.80
2022-10-24T21:03:12.167Z,1.92
2022-10-24T21:05:38.960Z,1.67
2022-10-24T21:08:08.833Z,2.08
2022-10-24T21:10:35.505Z,1.40
2022-10-24T21:13:02.152Z,1.63
2022-10-24T21:15:28.882Z,2.03
2022-10-24T21:17:55.434Z,1.58
2022-10-24T21:20:22.092Z,1.75
2022-10-24T21:22:48.680Z,1.50
2022-10-24T21:25:16.978Z,1.40
2022-10-24T21:27:43.624Z,1.67
2022-10-24T21:30:14.406Z,1.80
2022-10-24T21:32:41.713Z,2.03
2022-10-24T21:35:08.418Z,1.90
2022-10-24T21:37:35.037Z,1.65
2022-10-24T21:40:01.834Z,1.73
2022-10-24T21:42:30.386Z,1.63
2022-10-24T21:44:57.066Z,1.98
2022-10-24T21:47:23.745Z,1.70
2022-10-24T21:49:50.334Z,1.90
2022-10-24T21:52:16.997Z,1.98
2022-10-24T21:54:43.544Z,2.20
2022-10-24T21:57:10.134Z,1.80
2022-10-24T21:59:36.777Z,2.17
2022-10-24T22:02:03.523Z,2.13
2022-10-24T22:04:30.259Z,2.78
2022-10-24T22:06:56.838Z,2.60
2022-10-24T22:09:26.619Z,2.35
2022-10-24T22:11:57.751Z,2.42
2022-10-24T22:14:25.082Z,2.42
2022-10-24T22:16:51.665Z,2.42
2022-10-24T22:19:18.741Z,2.45
2022-10-24T22:21:47.729Z,2.30
2022-10-24T22:24:19.871Z,2.58
2022-10-24T22:26:47.008Z,2.50
2022-10-24T22:29:16.823Z,2.78
2022-10-24T22:31:44.246Z,1.70
2022-10-24T22:34:20.520Z,2.00
2022-10-24T22:37:08.864Z,2.63
2022-10-24T22:39:35.657Z,2.15
2022-10-24T22:42:02.583Z,1.95
2022-10-24T22:44:29.440Z,1.97
2022-10-24T22:47:17.928Z,2.00
2022-10-24T22:50:10.260Z,2.20
2022-10-24T22:52:37.173Z,1.73
2022-10-24T22:55:05.205Z,2.22
2022-10-24T23:00:05.520Z,1.85
2022-10-24T23:02:36.367Z,1.90
2022-10-24T23:05:14.742Z,1.70
2022-10-24T23:07:49.735Z,2.22
2022-10-24T23:10:21.804Z,1.88
2022-10-24T23:12:49.546Z,2.30
2022-10-24T23:15:18.506Z,1.90
2022-10-24T23:17:46.279Z,1.92
2022-10-24T23:20:28.026Z,2.15
2022-10-24T23:23:09.064Z,1.73
2022-10-24T23:25:49.366Z,1.88
2022-10-24T23:28:23.981Z,1.48
2022-10-24T23:30:50.804Z,1.85
2022-10-24T23:33:29.339Z,1.35
2022-10-24T23:35:59.920Z,1.73
2022-10-24T23:38:27.302Z,1.30
2022-10-24T23:40:54.260Z,1.50
2022-10-24T23:43:21.782Z,1.30
2022-10-24T23:45:50.556Z,1.52
2022-10-24T23:48:58.830Z,1.33
2022-10-24T23:51:45.672Z,1.42
2022-10-24T23:54:13.208Z,1.50
2022-10-24T23:56:40.208Z,1.30
2022-10-24T23:59:06.789Z,1.83
